Pagina principale
METAR-TAF:

METAR-TAF

Aeroporti :

Aeroporto di Lecce-Galatina

Lecce, Italia

latitudine: 40-14N, longitudine: 018-09E, altezza: 48 m

Osservazione

Il bollettino è stato emesso 33 minuti fa, alle 02:55 UTC
Vento calmo
Temperature 5°C
Umidità 93%
Pressione 1022 hPa
Visibilità: 5000 m
foschia

METAR: LIBN 270255Z 00000KT 5000 BR NSC 05/04 Q1022 RMK SKC VIS MIN 5000 WIND THR14 00000KT WIND THR32 00000KT WHT

Ora: 04:28 (03:28 UTC)

Previsione

Il bollettino è stato emesso 13 ore e 28 minuti fa, alle 14:00 UTC
Previsione valida dal 26 alle 15 UTC al 26 alle 24 UTC
Vento 10 kt da nord
Visibilità: 8000 m
Poco nuvoloso ad un'altezza di 3000 ft
Evoluzione graduale
dal 26 alle 17 UTC al 26 alle 19 UTC
Vento 3 kt da direzioni variabili
Visibilità: 6000 m
Poco nuvoloso ad un'altezza di 1000 ft

TAF: LIBN 261400Z 2615/2624 36010KT 8000 FEW030 BECMG 2617/2619 VRB03KT 6000 FEW010

Osservazioni e previsioni meteorologiche di più di 4000 aeroporti (messaggi METAR e TAF).

Le stazioni disponibili sono rappresentate dai dischi gialli e rossi sulla carta.

Puntare il mouse per vedere il nome della stazione.

Clicca sopra per visualizzare le osservazioni e previsioni meteorologiche.

Per cambiare la mappa : fare clic sui pulsanti verdi con una croce nera per ingrandire, il pulsante verde con un trattino per diminuire, o sulla freccia verde per le mappe adiacenti.


METAR-TAF: